Terminal Aerodrome Forecast
Issued by NWS Atlanta, GA

Home | Current Version | Previous Version | Text Only | Print | Product List | Glossary On
Versions: 1 2 3 4 5 6 7 8 9 10 11 12 13 14 15 16 17 18 19 20 21 22 23 24 25 26
000
FTUS42 KFFC 081747
TAFCSG
TAF
KCSG 081747Z 0818/0918 11011KT P6SM BKN070
     FM090600 11007KT P6SM VCSH OVC025
     FM091000 12008KT P6SM VCSH BKN012
      TEMPO 0910/0913 6SM -RA BR BKN008
     FM091300 13008KT 6SM -RA BR OVC008
     FM091500 16008KT 4SM -RADZ BR OVC004
     FM091700 20010KT P6SM SCT008 BKN012=

USA.gov is the U.S. government's official web portal to all federal, state and local government web resources and services.